sensor_id;sensor_type;location;lat;lon;timestamp;P1;durP1;ratioP1;P2;durP2;ratioP2
70535;SDS011;58089;48.752;11.338;2022-07-23T00:02:20;11.00;;;6.13;;
70535;SDS011;58089;48.752;11.338;2022-07-23T00:04:45;10.98;;;6.43;;
70535;SDS011;58089;48.752;11.338;2022-07-23T00:07:11;11.67;;;5.97;;
70535;SDS011;58089;48.752;11.338;2022-07-23T00:09:36;10.27;;;5.80;;
70535;SDS011;58089;48.752;11.338;2022-07-23T00:12:01;11.57;;;6.78;;
70535;SDS011;58089;48.752;11.338;2022-07-23T00:14:26;11.33;;;6.37;;
70535;SDS011;58089;48.752;11.338;2022-07-23T00:16:51;12.33;;;6.53;;
70535;SDS011;58089;48.752;11.338;2022-07-23T00:19:17;9.03;;;6.50;;
70535;SDS011;58089;48.752;11.338;2022-07-23T00:21:48;12.13;;;6.13;;
70535;SDS011;58089;48.752;11.338;2022-07-23T00:24:13;14.73;;;7.17;;
70535;SDS011;58089;48.752;11.338;2022-07-23T00:26:38;12.50;;;7.20;;
70535;SDS011;58089;48.752;11.338;2022-07-23T00:29:03;13.13;;;7.07;;
70535;SDS011;58089;48.752;11.338;2022-07-23T00:31:28;17.53;;;7.50;;
70535;SDS011;58089;48.752;11.338;2022-07-23T00:33:54;10.77;;;6.13;;
70535;SDS011;58089;48.752;11.338;2022-07-23T00:36:22;11.38;;;7.18;;
70535;SDS011;58089;48.752;11.338;2022-07-23T00:38:48;11.52;;;6.57;;
70535;SDS011;58089;48.752;11.338;2022-07-23T00:41:13;13.17;;;6.80;;
70535;SDS011;58089;48.752;11.338;2022-07-23T00:43:38;10.53;;;6.27;;
70535;SDS011;58089;48.752;11.338;2022-07-23T00:46:04;10.13;;;6.47;;
70535;SDS011;58089;48.752;11.338;2022-07-23T00:48:29;10.60;;;6.23;;
70535;SDS011;58089;48.752;11.338;2022-07-23T00:50:54;12.53;;;6.30;;
70535;SDS011;58089;48.752;11.338;2022-07-23T00:53:19;15.13;;;6.43;;
70535;SDS011;58089;48.752;11.338;2022-07-23T00:55:44;10.90;;;6.40;;
70535;SDS011;58089;48.752;11.338;2022-07-23T00:58:10;10.20;;;6.13;;
70535;SDS011;58089;48.752;11.338;2022-07-23T01:00:36;11.48;;;6.40;;
70535;SDS011;58089;48.752;11.338;2022-07-23T01:03:01;13.77;;;6.77;;
70535;SDS011;58089;48.752;11.338;2022-07-23T01:05:26;10.93;;;6.57;;
70535;SDS011;58089;48.752;11.338;2022-07-23T01:07:51;12.90;;;6.80;;
70535;SDS011;58089;48.752;11.338;2022-07-23T01:10:17;16.00;;;6.20;;
70535;SDS011;58089;48.752;11.338;2022-07-23T01:12:58;14.30;;;7.13;;
70535;SDS011;58089;48.752;11.338;2022-07-23T01:15:24;12.00;;;7.10;;
70535;SDS011;58089;48.752;11.338;2022-07-23T01:17:49;11.67;;;7.47;;
70535;SDS011;58089;48.752;11.338;2022-07-23T01:20:15;12.95;;;7.90;;
70535;SDS011;58089;48.752;11.338;2022-07-23T01:22:40;11.17;;;7.40;;
70535;SDS011;58089;48.752;11.338;2022-07-23T01:25:06;13.63;;;7.73;;
70535;SDS011;58089;48.752;11.338;2022-07-23T01:27:31;12.57;;;7.43;;
70535;SDS011;58089;48.752;11.338;2022-07-23T01:29:56;13.43;;;7.15;;
70535;SDS011;58089;48.752;11.338;2022-07-23T01:32:22;12.98;;;7.18;;
70535;SDS011;58089;48.752;11.338;2022-07-23T01:34:47;10.30;;;7.23;;
70535;SDS011;58089;48.752;11.338;2022-07-23T01:37:12;15.60;;;8.00;;
70535;SDS011;58089;48.752;11.338;2022-07-23T01:39:37;10.67;;;7.47;;
70535;SDS011;58089;48.752;11.338;2022-07-23T01:42:02;14.67;;;6.97;;
70535;SDS011;58089;48.752;11.338;2022-07-23T01:44:28;12.23;;;7.20;;
70535;SDS011;58089;48.752;11.338;2022-07-23T01:46:53;11.10;;;7.03;;
70535;SDS011;58089;48.752;11.338;2022-07-23T01:49:18;14.63;;;7.07;;
70535;SDS011;58089;48.752;11.338;2022-07-23T01:51:43;11.90;;;7.60;;
70535;SDS011;58089;48.752;11.338;2022-07-23T01:54:25;11.25;;;7.63;;
70535;SDS011;58089;48.752;11.338;2022-07-23T01:56:50;11.97;;;7.70;;
70535;SDS011;58089;48.752;11.338;2022-07-23T01:59:15;12.10;;;7.03;;
70535;SDS011;58089;48.752;11.338;2022-07-23T02:01:40;10.93;;;6.83;;
70535;SDS011;58089;48.752;11.338;2022-07-23T02:04:05;11.80;;;6.90;;
70535;SDS011;58089;48.752;11.338;2022-07-23T02:06:31;13.20;;;6.60;;
70535;SDS011;58089;48.752;11.338;2022-07-23T02:08:56;9.82;;;6.80;;
70535;SDS011;58089;48.752;11.338;2022-07-23T02:11:21;9.20;;;6.90;;
70535;SDS011;58089;48.752;11.338;2022-07-23T02:13:46;11.23;;;6.37;;
70535;SDS011;58089;48.752;11.338;2022-07-23T02:16:11;13.47;;;6.90;;
70535;SDS011;58089;48.752;11.338;2022-07-23T02:18:36;10.43;;;6.50;;
70535;SDS011;58089;48.752;11.338;2022-07-23T02:21:02;10.77;;;6.73;;
70535;SDS011;58089;48.752;11.338;2022-07-23T02:23:27;9.87;;;6.13;;
70535;SDS011;58089;48.752;11.338;2022-07-23T02:25:52;10.17;;;6.60;;
70535;SDS011;58089;48.752;11.338;2022-07-23T02:28:17;12.00;;;6.70;;
70535;SDS011;58089;48.752;11.338;2022-07-23T02:30:42;9.95;;;6.13;;
70535;SDS011;58089;48.752;11.338;2022-07-23T02:33:08;14.97;;;7.20;;
70535;SDS011;58089;48.752;11.338;2022-07-23T02:35:33;8.80;;;5.53;;
70535;SDS011;58089;48.752;11.338;2022-07-23T02:37:58;10.48;;;6.20;;
70535;SDS011;58089;48.752;11.338;2022-07-23T02:40:24;11.07;;;6.47;;
70535;SDS011;58089;48.752;11.338;2022-07-23T02:42:49;11.57;;;5.90;;
70535;SDS011;58089;48.752;11.338;2022-07-23T02:45:14;9.90;;;6.13;;
70535;SDS011;58089;48.752;11.338;2022-07-23T02:47:39;8.50;;;5.90;;
70535;SDS011;58089;48.752;11.338;2022-07-23T02:50:04;11.80;;;5.37;;
70535;SDS011;58089;48.752;11.338;2022-07-23T02:52:30;11.13;;;5.78;;
70535;SDS011;58089;48.752;11.338;2022-07-23T02:54:55;8.63;;;4.83;;
70535;SDS011;58089;48.752;11.338;2022-07-23T02:57:20;12.63;;;6.73;;
70535;SDS011;58089;48.752;11.338;2022-07-23T02:59:45;10.03;;;5.73;;
70535;SDS011;58089;48.752;11.338;2022-07-23T03:02:11;9.97;;;5.90;;
70535;SDS011;58089;48.752;11.338;2022-07-23T03:04:36;11.20;;;6.43;;
70535;SDS011;58089;48.752;11.338;2022-07-23T03:07:01;9.90;;;6.27;;
70535;SDS011;58089;48.752;11.338;2022-07-23T03:09:26;14.57;;;5.83;;
70535;SDS011;58089;48.752;11.338;2022-07-23T03:11:51;10.43;;;5.50;;
70535;SDS011;58089;48.752;11.338;2022-07-23T03:14:16;11.70;;;5.47;;
70535;SDS011;58089;48.752;11.338;2022-07-23T03:16:42;9.93;;;5.40;;
70535;SDS011;58089;48.752;11.338;2022-07-23T03:19:07;10.20;;;5.20;;
70535;SDS011;58089;48.752;11.338;2022-07-23T03:21:32;9.60;;;5.23;;
70535;SDS011;58089;48.752;11.338;2022-07-23T03:23:57;9.17;;;5.50;;
70535;SDS011;58089;48.752;11.338;2022-07-23T03:26:22;9.83;;;5.40;;
70535;SDS011;58089;48.752;11.338;2022-07-23T03:28:50;12.20;;;6.30;;
70535;SDS011;58089;48.752;11.338;2022-07-23T03:31:15;8.17;;;5.10;;
70535;SDS011;58089;48.752;11.338;2022-07-23T03:33:40;8.20;;;5.10;;
70535;SDS011;58089;48.752;11.338;2022-07-23T03:36:06;8.23;;;5.47;;
70535;SDS011;58089;48.752;11.338;2022-07-23T03:38:31;9.05;;;5.05;;
70535;SDS011;58089;48.752;11.338;2022-07-23T03:40:57;8.67;;;5.43;;
70535;SDS011;58089;48.752;11.338;2022-07-23T03:43:22;8.60;;;4.97;;
70535;SDS011;58089;48.752;11.338;2022-07-23T03:45:49;10.63;;;5.30;;
70535;SDS011;58089;48.752;11.338;2022-07-23T03:48:14;8.03;;;4.90;;
70535;SDS011;58089;48.752;11.338;2022-07-23T03:50:39;10.90;;;5.67;;
70535;SDS011;58089;48.752;11.338;2022-07-23T03:53:04;8.60;;;5.10;;
70535;SDS011;58089;48.752;11.338;2022-07-23T03:55:30;8.17;;;5.30;;
70535;SDS011;58089;48.752;11.338;2022-07-23T03:57:55;9.80;;;5.57;;
70535;SDS011;58089;48.752;11.338;2022-07-23T04:00:20;8.67;;;5.60;;
70535;SDS011;58089;48.752;11.338;2022-07-23T04:02:45;9.50;;;5.60;;
70535;SDS011;58089;48.752;11.338;2022-07-23T04:05:10;8.87;;;5.40;;
70535;SDS011;58089;48.752;11.338;2022-07-23T04:07:35;9.80;;;6.00;;
70535;SDS011;58089;48.752;11.338;2022-07-23T04:10:01;9.43;;;5.50;;
70535;SDS011;58089;48.752;11.338;2022-07-23T04:12:26;10.55;;;5.75;;
70535;SDS011;58089;48.752;11.338;2022-07-23T04:14:54;10.10;;;5.23;;
70535;SDS011;58089;48.752;11.338;2022-07-23T04:17:19;13.07;;;5.67;;
70535;SDS011;58089;48.752;11.338;2022-07-23T04:19:44;9.67;;;5.80;;
70535;SDS011;58089;48.752;11.338;2022-07-23T04:22:10;8.47;;;5.37;;
70535;SDS011;58089;48.752;11.338;2022-07-23T04:24:35;9.63;;;5.90;;
70535;SDS011;58089;48.752;11.338;2022-07-23T04:27:01;9.73;;;5.60;;
70535;SDS011;58089;48.752;11.338;2022-07-23T04:29:26;8.67;;;5.97;;
70535;SDS011;58089;48.752;11.338;2022-07-23T04:31:51;8.80;;;6.10;;
70535;SDS011;58089;48.752;11.338;2022-07-23T04:34:16;9.43;;;6.60;;
70535;SDS011;58089;48.752;11.338;2022-07-23T04:36:42;10.80;;;6.47;;
70535;SDS011;58089;48.752;11.338;2022-07-23T04:39:07;9.03;;;6.17;;
70535;SDS011;58089;48.752;11.338;2022-07-23T04:41:32;11.97;;;6.53;;
70535;SDS011;58089;48.752;11.338;2022-07-23T04:43:59;10.57;;;6.57;;
70535;SDS011;58089;48.752;11.338;2022-07-23T04:46:24;10.73;;;6.23;;
70535;SDS011;58089;48.752;11.338;2022-07-23T04:48:49;10.50;;;6.50;;
70535;SDS011;58089;48.752;11.338;2022-07-23T04:51:14;10.83;;;6.70;;
70535;SDS011;58089;48.752;11.338;2022-07-23T04:53:39;8.77;;;6.10;;
70535;SDS011;58089;48.752;11.338;2022-07-23T04:56:05;10.90;;;7.20;;
70535;SDS011;58089;48.752;11.338;2022-07-23T04:58:30;11.53;;;6.97;;
70535;SDS011;58089;48.752;11.338;2022-07-23T05:00:56;11.05;;;6.95;;
70535;SDS011;58089;48.752;11.338;2022-07-23T05:03:22;11.77;;;7.45;;
70535;SDS011;58089;48.752;11.338;2022-07-23T05:05:48;11.00;;;6.60;;
70535;SDS011;58089;48.752;11.338;2022-07-23T05:08:13;11.13;;;7.27;;
70535;SDS011;58089;48.752;11.338;2022-07-23T05:10:38;11.10;;;6.83;;
70535;SDS011;58089;48.752;11.338;2022-07-23T05:13:03;12.10;;;6.87;;
70535;SDS011;58089;48.752;11.338;2022-07-23T05:15:29;9.77;;;7.10;;
70535;SDS011;58089;48.752;11.338;2022-07-23T05:17:54;10.40;;;7.23;;
70535;SDS011;58089;48.752;11.338;2022-07-23T05:20:19;10.57;;;6.93;;
70535;SDS011;58089;48.752;11.338;2022-07-23T05:22:44;10.60;;;7.20;;
70535;SDS011;58089;48.752;11.338;2022-07-23T05:25:09;11.40;;;7.40;;
70535;SDS011;58089;48.752;11.338;2022-07-23T05:27:35;12.37;;;6.97;;
70535;SDS011;58089;48.752;11.338;2022-07-23T05:30:00;11.07;;;7.30;;
70535;SDS011;58089;48.752;11.338;2022-07-23T05:32:25;9.87;;;6.67;;
70535;SDS011;58089;48.752;11.338;2022-07-23T05:34:50;9.37;;;6.53;;
70535;SDS011;58089;48.752;11.338;2022-07-23T05:37:16;10.63;;;6.80;;
70535;SDS011;58089;48.752;11.338;2022-07-23T05:39:41;10.00;;;6.30;;
70535;SDS011;58089;48.752;11.338;2022-07-23T05:42:06;10.93;;;6.30;;
70535;SDS011;58089;48.752;11.338;2022-07-23T05:44:31;10.23;;;6.73;;
70535;SDS011;58089;48.752;11.338;2022-07-23T05:46:56;10.70;;;6.82;;
70535;SDS011;58089;48.752;11.338;2022-07-23T05:49:21;11.47;;;6.87;;
70535;SDS011;58089;48.752;11.338;2022-07-23T05:51:47;8.77;;;5.83;;
70535;SDS011;58089;48.752;11.338;2022-07-23T05:54:12;8.53;;;6.00;;
70535;SDS011;58089;48.752;11.338;2022-07-23T05:56:37;10.97;;;6.53;;
70535;SDS011;58089;48.752;11.338;2022-07-23T05:59:02;9.93;;;6.10;;
70535;SDS011;58089;48.752;11.338;2022-07-23T06:01:28;11.98;;;6.40;;
70535;SDS011;58089;48.752;11.338;2022-07-23T06:03:53;9.80;;;6.33;;
70535;SDS011;58089;48.752;11.338;2022-07-23T06:06:18;11.53;;;5.93;;
70535;SDS011;58089;48.752;11.338;2022-07-23T06:08:43;10.32;;;5.80;;
70535;SDS011;58089;48.752;11.338;2022-07-23T06:11:08;12.97;;;7.27;;
70535;SDS011;58089;48.752;11.338;2022-07-23T06:13:34;9.10;;;5.67;;
70535;SDS011;58089;48.752;11.338;2022-07-23T06:15:59;9.43;;;5.63;;
70535;SDS011;58089;48.752;11.338;2022-07-23T06:18:24;10.17;;;6.23;;
70535;SDS011;58089;48.752;11.338;2022-07-23T06:20:49;10.53;;;6.90;;
70535;SDS011;58089;48.752;11.338;2022-07-23T06:23:15;15.30;;;9.07;;
70535;SDS011;58089;48.752;11.338;2022-07-23T06:25:40;10.07;;;7.77;;
70535;SDS011;58089;48.752;11.338;2022-07-23T06:28:05;12.27;;;7.37;;
70535;SDS011;58089;48.752;11.338;2022-07-23T06:30:31;11.10;;;7.68;;
70535;SDS011;58089;48.752;11.338;2022-07-23T06:32:56;10.17;;;6.90;;
70535;SDS011;58089;48.752;11.338;2022-07-23T06:35:21;12.30;;;7.60;;
70535;SDS011;58089;48.752;11.338;2022-07-23T06:37:47;9.40;;;6.67;;
70535;SDS011;58089;48.752;11.338;2022-07-23T06:40:12;9.95;;;6.60;;
70535;SDS011;58089;48.752;11.338;2022-07-23T06:42:38;14.10;;;7.60;;
70535;SDS011;58089;48.752;11.338;2022-07-23T06:45:04;12.73;;;6.82;;
70535;SDS011;58089;48.752;11.338;2022-07-23T06:47:30;12.63;;;7.27;;
70535;SDS011;58089;48.752;11.338;2022-07-23T06:49:55;12.13;;;7.40;;
70535;SDS011;58089;48.752;11.338;2022-07-23T06:52:20;12.07;;;6.87;;
70535;SDS011;58089;48.752;11.338;2022-07-23T06:54:45;9.50;;;6.73;;
70535;SDS011;58089;48.752;11.338;2022-07-23T06:57:10;10.07;;;6.30;;
70535;SDS011;58089;48.752;11.338;2022-07-23T06:59:36;14.87;;;7.30;;
70535;SDS011;58089;48.752;11.338;2022-07-23T07:02:05;12.40;;;7.07;;
70535;SDS011;58089;48.752;11.338;2022-07-23T07:04:30;11.90;;;6.78;;
70535;SDS011;58089;48.752;11.338;2022-07-23T07:06:56;9.98;;;6.72;;
70535;SDS011;58089;48.752;11.338;2022-07-23T07:09:22;11.63;;;6.93;;
70535;SDS011;58089;48.752;11.338;2022-07-23T07:11:47;9.27;;;6.37;;
70535;SDS011;58089;48.752;11.338;2022-07-23T07:14:12;10.17;;;6.33;;
70535;SDS011;58089;48.752;11.338;2022-07-23T07:16:37;10.40;;;7.47;;
70535;SDS011;58089;48.752;11.338;2022-07-23T07:19:02;11.67;;;7.10;;
70535;SDS011;58089;48.752;11.338;2022-07-23T07:21:28;11.93;;;6.87;;
70535;SDS011;58089;48.752;11.338;2022-07-23T07:23:53;10.43;;;6.60;;
70535;SDS011;58089;48.752;11.338;2022-07-23T07:26:18;10.93;;;6.90;;
70535;SDS011;58089;48.752;11.338;2022-07-23T07:28:43;10.37;;;7.00;;
70535;SDS011;58089;48.752;11.338;2022-07-23T07:31:09;11.00;;;7.37;;
70535;SDS011;58089;48.752;11.338;2022-07-23T07:33:34;10.87;;;6.80;;
70535;SDS011;58089;48.752;11.338;2022-07-23T07:35:59;11.03;;;6.90;;
70535;SDS011;58089;48.752;11.338;2022-07-23T07:38:25;10.75;;;6.90;;
70535;SDS011;58089;48.752;11.338;2022-07-23T07:40:50;10.60;;;6.87;;
70535;SDS011;58089;48.752;11.338;2022-07-23T07:43:16;10.67;;;7.43;;
70535;SDS011;58089;48.752;11.338;2022-07-23T07:45:41;9.23;;;6.53;;
70535;SDS011;58089;48.752;11.338;2022-07-23T07:48:06;8.87;;;6.57;;
70535;SDS011;58089;48.752;11.338;2022-07-23T07:50:31;9.30;;;6.40;;
70535;SDS011;58089;48.752;11.338;2022-07-23T07:52:56;10.60;;;6.80;;
70535;SDS011;58089;48.752;11.338;2022-07-23T07:55:22;9.23;;;6.50;;
70535;SDS011;58089;48.752;11.338;2022-07-23T07:57:47;10.33;;;6.20;;
70535;SDS011;58089;48.752;11.338;2022-07-23T08:00:12;9.85;;;6.60;;
70535;SDS011;58089;48.752;11.338;2022-07-23T08:02:44;9.45;;;6.50;;
70535;SDS011;58089;48.752;11.338;2022-07-23T08:05:10;11.13;;;7.50;;
70535;SDS011;58089;48.752;11.338;2022-07-23T08:07:35;9.27;;;6.60;;
70535;SDS011;58089;48.752;11.338;2022-07-23T08:10:02;11.35;;;6.30;;
70535;SDS011;58089;48.752;11.338;2022-07-23T08:12:27;10.50;;;6.20;;
70535;SDS011;58089;48.752;11.338;2022-07-23T08:14:52;12.50;;;6.63;;
70535;SDS011;58089;48.752;11.338;2022-07-23T08:17:17;9.60;;;6.77;;
70535;SDS011;58089;48.752;11.338;2022-07-23T08:19:43;11.03;;;6.77;;
70535;SDS011;58089;48.752;11.338;2022-07-23T08:22:08;11.60;;;6.70;;
70535;SDS011;58089;48.752;11.338;2022-07-23T08:24:33;10.13;;;6.50;;
70535;SDS011;58089;48.752;11.338;2022-07-23T08:26:58;9.10;;;6.20;;
70535;SDS011;58089;48.752;11.338;2022-07-23T08:29:23;10.60;;;6.80;;
70535;SDS011;58089;48.752;11.338;2022-07-23T08:31:48;12.40;;;6.37;;
70535;SDS011;58089;48.752;11.338;2022-07-23T08:34:14;10.83;;;6.60;;
70535;SDS011;58089;48.752;11.338;2022-07-23T08:36:39;10.17;;;6.33;;
70535;SDS011;58089;48.752;11.338;2022-07-23T08:39:04;10.50;;;6.60;;
70535;SDS011;58089;48.752;11.338;2022-07-23T08:41:29;11.70;;;6.77;;
70535;SDS011;58089;48.752;11.338;2022-07-23T08:43:55;11.40;;;6.80;;
70535;SDS011;58089;48.752;11.338;2022-07-23T08:46:20;10.03;;;6.97;;
70535;SDS011;58089;48.752;11.338;2022-07-23T08:48:47;11.23;;;6.73;;
70535;SDS011;58089;48.752;11.338;2022-07-23T08:51:12;10.90;;;6.65;;
70535;SDS011;58089;48.752;11.338;2022-07-23T08:53:38;10.27;;;6.37;;
70535;SDS011;58089;48.752;11.338;2022-07-23T08:56:03;10.10;;;6.50;;
70535;SDS011;58089;48.752;11.338;2022-07-23T08:58:29;9.90;;;6.73;;
70535;SDS011;58089;48.752;11.338;2022-07-23T09:00:55;9.10;;;6.25;;
70535;SDS011;58089;48.752;11.338;2022-07-23T09:03:25;8.63;;;5.70;;
70535;SDS011;58089;48.752;11.338;2022-07-23T09:05:51;8.70;;;5.93;;
70535;SDS011;58089;48.752;11.338;2022-07-23T09:08:17;8.02;;;5.13;;
70535;SDS011;58089;48.752;11.338;2022-07-23T09:15:56;8.27;;;5.28;;
70535;SDS011;58089;48.752;11.338;2022-07-23T09:18:56;8.60;;;5.30;;
70535;SDS011;58089;48.752;11.338;2022-07-23T09:21:26;8.60;;;4.80;;
70535;SDS011;58089;48.752;11.338;2022-07-23T09:23:57;8.95;;;5.38;;
70535;SDS011;58089;48.752;11.338;2022-07-23T09:29:04;8.45;;;5.00;;
70535;SDS011;58089;48.752;11.338;2022-07-23T09:36:35;9.57;;;5.30;;
70535;SDS011;58089;48.752;11.338;2022-07-23T09:39:01;7.27;;;4.67;;
70535;SDS011;58089;48.752;11.338;2022-07-23T09:41:26;7.53;;;4.63;;
70535;SDS011;58089;48.752;11.338;2022-07-23T09:43:58;8.05;;;5.05;;
70535;SDS011;58089;48.752;11.338;2022-07-23T09:46:31;8.07;;;4.60;;
70535;SDS011;58089;48.752;11.338;2022-07-23T09:48:56;7.87;;;5.00;;
70535;SDS011;58089;48.752;11.338;2022-07-23T09:51:22;7.70;;;5.25;;
70535;SDS011;58089;48.752;11.338;2022-07-23T09:53:53;7.88;;;5.10;;
70535;SDS011;58089;48.752;11.338;2022-07-23T09:56:18;7.77;;;4.60;;
70535;SDS011;58089;48.752;11.338;2022-07-23T09:58:45;7.07;;;4.50;;
70535;SDS011;58089;48.752;11.338;2022-07-23T10:01:12;6.60;;;4.18;;
70535;SDS011;58089;48.752;11.338;2022-07-23T10:03:38;7.10;;;4.72;;
70535;SDS011;58089;48.752;11.338;2022-07-23T10:06:04;7.37;;;4.50;;
70535;SDS011;58089;48.752;11.338;2022-07-23T10:08:29;8.30;;;4.35;;
70535;SDS011;58089;48.752;11.338;2022-07-23T10:10:56;6.77;;;3.83;;
70535;SDS011;58089;48.752;11.338;2022-07-23T10:13:22;6.97;;;4.60;;
70535;SDS011;58089;48.752;11.338;2022-07-23T10:15:50;8.32;;;4.47;;
70535;SDS011;58089;48.752;11.338;2022-07-23T10:18:16;7.80;;;4.70;;
70535;SDS011;58089;48.752;11.338;2022-07-23T10:20:41;7.18;;;4.18;;
70535;SDS011;58089;48.752;11.338;2022-07-23T10:31:06;7.40;;;4.17;;
70535;SDS011;58089;48.752;11.338;2022-07-23T10:33:53;7.05;;;3.80;;
70535;SDS011;58089;48.752;11.338;2022-07-23T10:36:28;5.97;;;3.88;;
70535;SDS011;58089;48.752;11.338;2022-07-23T10:41:30;8.30;;;4.22;;
70535;SDS011;58089;48.752;11.338;2022-07-23T10:44:12;6.23;;;4.20;;
70535;SDS011;58089;48.752;11.338;2022-07-23T10:46:57;6.68;;;3.92;;
70535;SDS011;58089;48.752;11.338;2022-07-23T10:49:29;6.50;;;4.22;;
70535;SDS011;58089;48.752;11.338;2022-07-23T10:54:38;8.05;;;4.03;;
70535;SDS011;58089;48.752;11.338;2022-07-23T10:57:07;9.20;;;4.37;;
70535;SDS011;58089;48.752;11.338;2022-07-23T11:02:21;6.60;;;3.95;;
70535;SDS011;58089;48.752;11.338;2022-07-23T11:04:51;6.10;;;3.65;;
70535;SDS011;58089;48.752;11.338;2022-07-23T11:07:17;6.68;;;4.20;;
70535;SDS011;58089;48.752;11.338;2022-07-23T11:09:43;7.53;;;4.20;;
70535;SDS011;58089;48.752;11.338;2022-07-23T11:17:30;7.17;;;3.97;;
70535;SDS011;58089;48.752;11.338;2022-07-23T11:25:07;6.63;;;3.83;;
70535;SDS011;58089;48.752;11.338;2022-07-23T11:27:45;7.07;;;3.90;;
70535;SDS011;58089;48.752;11.338;2022-07-23T11:30:44;6.85;;;3.40;;
70535;SDS011;58089;48.752;11.338;2022-07-23T11:35:34;6.15;;;3.85;;
70535;SDS011;58089;48.752;11.338;2022-07-23T11:38:04;7.22;;;3.72;;
70535;SDS011;58089;48.752;11.338;2022-07-23T11:40:31;8.17;;;3.53;;
70535;SDS011;58089;48.752;11.338;2022-07-23T11:43:00;6.68;;;3.80;;
70535;SDS011;58089;48.752;11.338;2022-07-23T11:45:47;7.33;;;3.80;;
70535;SDS011;58089;48.752;11.338;2022-07-23T11:50:43;7.18;;;4.53;;
70535;SDS011;58089;48.752;11.338;2022-07-23T11:53:08;7.87;;;4.93;;
70535;SDS011;58089;48.752;11.338;2022-07-23T11:55:33;8.50;;;5.07;;
70535;SDS011;58089;48.752;11.338;2022-07-23T11:57:58;7.73;;;4.20;;
70535;SDS011;58089;48.752;11.338;2022-07-23T12:00:25;8.43;;;5.53;;
70535;SDS011;58089;48.752;11.338;2022-07-23T12:03:00;8.73;;;4.97;;
70535;SDS011;58089;48.752;11.338;2022-07-23T12:05:27;9.07;;;4.70;;
70535;SDS011;58089;48.752;11.338;2022-07-23T12:07:53;7.60;;;4.78;;
70535;SDS011;58089;48.752;11.338;2022-07-23T12:10:20;7.97;;;4.93;;
70535;SDS011;58089;48.752;11.338;2022-07-23T12:12:50;7.85;;;4.57;;
70535;SDS011;58089;48.752;11.338;2022-07-23T12:15:17;11.77;;;5.17;;
70535;SDS011;58089;48.752;11.338;2022-07-23T12:17:43;9.77;;;4.55;;
70535;SDS011;58089;48.752;11.338;2022-07-23T12:20:09;8.48;;;4.90;;
70535;SDS011;58089;48.752;11.338;2022-07-23T12:22:38;8.23;;;5.13;;
70535;SDS011;58089;48.752;11.338;2022-07-23T12:25:08;7.72;;;4.88;;
70535;SDS011;58089;48.752;11.338;2022-07-23T12:27:33;8.77;;;4.97;;
70535;SDS011;58089;48.752;11.338;2022-07-23T12:29:59;8.90;;;4.60;;
70535;SDS011;58089;48.752;11.338;2022-07-23T12:32:25;7.20;;;4.80;;
70535;SDS011;58089;48.752;11.338;2022-07-23T12:35:01;7.85;;;5.18;;
70535;SDS011;58089;48.752;11.338;2022-07-23T12:37:28;6.28;;;4.22;;
70535;SDS011;58089;48.752;11.338;2022-07-23T12:39:54;8.43;;;4.70;;
70535;SDS011;58089;48.752;11.338;2022-07-23T12:42:19;9.37;;;4.73;;
70535;SDS011;58089;48.752;11.338;2022-07-23T12:47:28;6.70;;;4.60;;
70535;SDS011;58089;48.752;11.338;2022-07-23T12:49:53;6.87;;;4.93;;
70535;SDS011;58089;48.752;11.338;2022-07-23T12:52:18;9.13;;;5.43;;
70535;SDS011;58089;48.752;11.338;2022-07-23T12:54:44;8.00;;;4.40;;
70535;SDS011;58089;48.752;11.338;2022-07-23T12:57:09;6.43;;;4.83;;
70535;SDS011;58089;48.752;11.338;2022-07-23T12:59:34;7.77;;;5.10;;
70535;SDS011;58089;48.752;11.338;2022-07-23T13:01:59;7.83;;;5.27;;
70535;SDS011;58089;48.752;11.338;2022-07-23T13:04:25;8.30;;;5.05;;
70535;SDS011;58089;48.752;11.338;2022-07-23T13:06:54;7.40;;;4.90;;
70535;SDS011;58089;48.752;11.338;2022-07-23T13:09:23;7.13;;;5.03;;
70535;SDS011;58089;48.752;11.338;2022-07-23T13:11:49;7.55;;;5.35;;
70535;SDS011;58089;48.752;11.338;2022-07-23T13:14:15;7.47;;;4.97;;
70535;SDS011;58089;48.752;11.338;2022-07-23T13:16:41;8.45;;;4.90;;
70535;SDS011;58089;48.752;11.338;2022-07-23T13:19:06;8.63;;;5.90;;
70535;SDS011;58089;48.752;11.338;2022-07-23T13:21:32;8.77;;;5.60;;
70535;SDS011;58089;48.752;11.338;2022-07-23T13:23:57;7.37;;;5.17;;
70535;SDS011;58089;48.752;11.338;2022-07-23T13:26:23;8.53;;;5.37;;
70535;SDS011;58089;48.752;11.338;2022-07-23T13:28:48;7.68;;;5.05;;
70535;SDS011;58089;48.752;11.338;2022-07-23T13:31:15;8.73;;;5.30;;
70535;SDS011;58089;48.752;11.338;2022-07-23T13:33:40;7.60;;;4.60;;
70535;SDS011;58089;48.752;11.338;2022-07-23T13:36:06;9.50;;;5.07;;
70535;SDS011;58089;48.752;11.338;2022-07-23T13:38:31;10.07;;;5.43;;
70535;SDS011;58089;48.752;11.338;2022-07-23T13:40:56;7.43;;;4.70;;
70535;SDS011;58089;48.752;11.338;2022-07-23T13:43:22;8.23;;;5.60;;
70535;SDS011;58089;48.752;11.338;2022-07-23T13:45:47;8.75;;;6.13;;
70535;SDS011;58089;48.752;11.338;2022-07-23T13:48:13;7.47;;;5.00;;
70535;SDS011;58089;48.752;11.338;2022-07-23T13:50:39;8.77;;;5.57;;
70535;SDS011;58089;48.752;11.338;2022-07-23T13:53:06;7.33;;;4.73;;
70535;SDS011;58089;48.752;11.338;2022-07-23T13:55:32;8.25;;;5.30;;
70535;SDS011;58089;48.752;11.338;2022-07-23T13:57:58;8.50;;;5.45;;
70535;SDS011;58089;48.752;11.338;2022-07-23T14:00:23;8.00;;;5.33;;
70535;SDS011;58089;48.752;11.338;2022-07-23T14:02:48;7.53;;;5.50;;
70535;SDS011;58089;48.752;11.338;2022-07-23T14:05:14;8.63;;;5.37;;
70535;SDS011;58089;48.752;11.338;2022-07-23T14:07:39;7.97;;;4.90;;
70535;SDS011;58089;48.752;11.338;2022-07-23T14:10:05;8.00;;;6.53;;
70535;SDS011;58089;48.752;11.338;2022-07-23T14:12:31;8.13;;;5.32;;
70535;SDS011;58089;48.752;11.338;2022-07-23T14:14:56;10.13;;;5.67;;
70535;SDS011;58089;48.752;11.338;2022-07-23T14:17:21;8.37;;;5.30;;
70535;SDS011;58089;48.752;11.338;2022-07-23T14:19:47;8.00;;;5.20;;
70535;SDS011;58089;48.752;11.338;2022-07-23T14:22:12;8.27;;;5.40;;
70535;SDS011;58089;48.752;11.338;2022-07-23T14:24:37;9.33;;;6.00;;
70535;SDS011;58089;48.752;11.338;2022-07-23T14:27:03;7.63;;;5.37;;
70535;SDS011;58089;48.752;11.338;2022-07-23T14:29:28;8.90;;;5.33;;
70535;SDS011;58089;48.752;11.338;2022-07-23T14:31:54;8.60;;;5.25;;
70535;SDS011;58089;48.752;11.338;2022-07-23T14:34:19;8.30;;;5.07;;
70535;SDS011;58089;48.752;11.338;2022-07-23T14:36:44;9.13;;;5.17;;
70535;SDS011;58089;48.752;11.338;2022-07-23T14:39:09;8.43;;;5.10;;
70535;SDS011;58089;48.752;11.338;2022-07-23T14:41:36;9.40;;;5.35;;
70535;SDS011;58089;48.752;11.338;2022-07-23T14:44:02;11.70;;;5.70;;
70535;SDS011;58089;48.752;11.338;2022-07-23T14:46:27;8.80;;;5.37;;
70535;SDS011;58089;48.752;11.338;2022-07-23T14:48:52;8.93;;;5.93;;
70535;SDS011;58089;48.752;11.338;2022-07-23T14:51:17;8.07;;;5.60;;
70535;SDS011;58089;48.752;11.338;2022-07-23T14:53:43;9.40;;;5.37;;
70535;SDS011;58089;48.752;11.338;2022-07-23T14:56:08;8.57;;;5.63;;
70535;SDS011;58089;48.752;11.338;2022-07-23T14:58:33;10.73;;;6.07;;
70535;SDS011;58089;48.752;11.338;2022-07-23T15:00:58;10.20;;;6.10;;
70535;SDS011;58089;48.752;11.338;2022-07-23T15:03:24;7.95;;;5.60;;
70535;SDS011;58089;48.752;11.338;2022-07-23T15:05:49;8.40;;;5.53;;
70535;SDS011;58089;48.752;11.338;2022-07-23T15:08:15;9.13;;;6.03;;
70535;SDS011;58089;48.752;11.338;2022-07-23T15:10:40;8.40;;;5.47;;